createdAt,value
2018-02-08T00:01:27.795Z,112.22
2018-02-08T00:03:55.403Z,87.15
2018-02-08T00:06:22.992Z,110.43
2018-02-08T00:08:50.693Z,110.12
2018-02-08T00:11:18.279Z,105.07
2018-02-08T00:13:45.878Z,104.90
2018-02-08T00:16:13.455Z,98.87
2018-02-08T00:18:41.070Z,119.37
2018-02-08T00:21:08.658Z,112.35
2018-02-08T00:23:36.245Z,104.45
2018-02-08T00:26:04.609Z,106.63
2018-02-08T00:28:32.186Z,107.97
2018-02-08T00:30:59.770Z,130.27
2018-02-08T00:33:27.359Z,117.95
2018-02-08T00:35:55.031Z,96.40
2018-02-08T00:38:22.620Z,112.45
2018-02-08T00:40:50.242Z,105.78
2018-02-08T00:43:17.961Z,105.97
2018-02-08T00:45:45.590Z,101.87
2018-02-08T00:48:13.177Z,101.62
2018-02-08T00:50:40.758Z,114.57
2018-02-08T00:53:08.348Z,119.00
2018-02-08T00:55:35.934Z,111.47
2018-02-08T00:58:03.590Z,125.28
2018-02-08T01:00:31.983Z,118.55
2018-02-08T01:02:59.548Z,115.65
2018-02-08T01:05:27.130Z,117.65
2018-02-08T01:07:54.718Z,126.62
2018-02-08T01:10:22.418Z,118.50
2018-02-08T01:12:50.003Z,136.55
2018-02-08T01:15:17.637Z,116.40
2018-02-08T01:17:46.127Z,148.93
2018-02-08T01:20:14.311Z,131.10
2018-02-08T01:22:41.894Z,116.30
2018-02-08T01:25:09.482Z,120.55
2018-02-08T01:27:37.070Z,118.68
2018-02-08T01:30:04.675Z,145.90
2018-02-08T01:32:33.770Z,112.88
2018-02-08T01:35:01.438Z,111.35
2018-02-08T01:37:29.030Z,127.57
2018-02-08T01:39:56.609Z,120.30
2018-02-08T01:42:25.098Z,125.00
2018-02-08T01:44:52.775Z,125.28
2018-02-08T01:47:20.400Z,123.03
2018-02-08T01:49:49.258Z,128.07
2018-02-08T01:52:17.650Z,119.45
2018-02-08T01:54:46.127Z,142.43
2018-02-08T01:57:13.851Z,128.98
2018-02-08T01:59:42.318Z,118.97
2018-02-08T02:02:09.906Z,133.65
2018-02-08T02:04:37.491Z,136.35
2018-02-08T02:07:05.170Z,128.87
2018-02-08T02:09:32.818Z,120.78
2018-02-08T02:12:00.402Z,151.12
2018-02-08T02:14:27.998Z,142.52
2018-02-08T02:16:55.590Z,132.02
2018-02-08T02:19:23.178Z,148.07
2018-02-08T02:21:50.767Z,123.25
2018-02-08T02:24:18.358Z,116.25
2018-02-08T02:26:46.016Z,149.57
2018-02-08T02:29:14.498Z,128.43
2018-02-08T02:31:42.089Z,116.97
2018-02-08T02:34:09.814Z,128.75
2018-02-08T02:36:37.406Z,141.45
2018-02-08T02:39:05.026Z,148.15
2018-02-08T02:41:32.658Z,135.93
2018-02-08T02:44:00.308Z,155.60
2018-02-08T02:46:27.903Z,136.18
2018-02-08T02:48:55.491Z,150.32
2018-02-08T02:51:23.123Z,147.15
2018-02-08T02:53:50.719Z,153.45
2018-02-08T02:56:18.312Z,161.75
2018-02-08T02:58:45.900Z,155.80
2018-02-08T03:01:13.535Z,138.35
2018-02-08T03:03:41.126Z,143.48
2018-02-08T03:06:08.713Z,134.45
2018-02-08T03:08:36.306Z,149.27
2018-02-08T03:11:03.899Z,139.73
2018-02-08T03:13:31.482Z,126.60
2018-02-08T03:15:59.072Z,142.40
2018-02-08T03:18:26.667Z,149.35
2018-02-08T03:20:54.259Z,156.90
2018-02-08T03:23:21.850Z,137.70
2018-02-08T03:25:49.439Z,160.98
2018-02-08T03:28:17.050Z,148.43
2018-02-08T03:30:48.135Z,147.57
2018-02-08T03:33:15.728Z,138.12
2018-02-08T03:35:43.316Z,150.38
2018-02-08T03:38:10.907Z,151.93
2018-02-08T03:40:38.535Z,159.55
2018-02-08T03:43:06.132Z,157.68
2018-02-08T03:45:33.725Z,151.07
2018-02-08T03:48:01.315Z,145.05
2018-02-08T03:50:28.905Z,151.70
2018-02-08T03:52:56.490Z,143.48
2018-02-08T03:55:24.080Z,135.43
2018-02-08T03:57:51.714Z,161.93
2018-02-08T04:00:19.306Z,167.10
2018-02-08T04:02:46.901Z,143.02
2018-02-08T04:05:14.487Z,162.88
2018-02-08T04:07:42.075Z,186.55
2018-02-08T04:10:09.663Z,155.27
2018-02-08T04:12:37.252Z,155.32
2018-02-08T04:15:04.839Z,183.60
2018-02-08T04:17:32.463Z,177.27
2018-02-08T04:20:00.064Z,183.32
2018-02-08T04:22:27.655Z,162.18
2018-02-08T04:24:55.259Z,176.10
2018-02-08T04:27:22.856Z,151.27
2018-02-08T04:29:50.448Z,145.70
2018-02-08T04:32:18.087Z,140.70
2018-02-08T04:34:45.675Z,153.98
2018-02-08T04:37:13.316Z,171.82
2018-02-08T04:39:52.569Z,144.62
2018-02-08T04:45:32.897Z,137.98
2018-02-08T04:48:08.400Z,152.18
2018-02-08T04:50:35.997Z,151.60
2018-02-08T04:53:03.588Z,140.82
2018-02-08T04:55:31.214Z,148.05
2018-02-08T04:57:58.801Z,149.52
2018-02-08T05:00:26.559Z,171.80
2018-02-08T05:02:54.147Z,144.13
2018-02-08T05:05:21.773Z,184.75
2018-02-08T05:07:49.365Z,182.60
2018-02-08T05:10:17.014Z,187.70
2018-02-08T05:12:44.666Z,187.30
2018-02-08T05:15:12.254Z,162.85
2018-02-08T05:17:39.843Z,165.80
2018-02-08T05:20:07.495Z,162.25
2018-02-08T05:22:35.101Z,157.00
2018-02-08T05:25:02.707Z,140.30
2018-02-08T05:27:30.299Z,160.70
2018-02-08T05:29:58.033Z,152.00
2018-02-08T05:32:25.627Z,139.62
2018-02-08T05:34:53.250Z,153.18
2018-02-08T05:37:20.845Z,138.23
2018-02-08T05:39:48.854Z,150.32
2018-02-08T05:42:16.446Z,173.40
2018-02-08T05:44:44.070Z,150.70
2018-02-08T05:47:11.700Z,160.50
2018-02-08T05:49:39.282Z,159.18
2018-02-08T05:52:06.903Z,173.02
2018-02-08T05:54:34.491Z,149.45
2018-02-08T05:57:02.193Z,155.05
2018-02-08T05:59:29.783Z,146.30
2018-02-08T06:01:57.458Z,166.32
2018-02-08T06:04:25.081Z,173.10
2018-02-08T06:06:52.664Z,157.60
2018-02-08T06:09:20.291Z,145.87
2018-02-08T06:11:47.918Z,151.93
2018-02-08T06:14:15.506Z,147.43
2018-02-08T06:16:43.186Z,149.95
2018-02-08T06:19:10.772Z,148.75
2018-02-08T06:21:38.403Z,167.00
2018-02-08T06:24:05.996Z,178.32
2018-02-08T06:26:33.591Z,174.75
2018-02-08T06:29:01.186Z,187.55
2018-02-08T06:31:28.783Z,153.77
2018-02-08T06:33:56.407Z,169.05
2018-02-08T06:36:24.007Z,140.15
2018-02-08T06:38:51.631Z,169.48
2018-02-08T06:41:19.305Z,160.25
2018-02-08T06:43:46.962Z,158.27
2018-02-08T06:46:14.626Z,182.45
2018-02-08T06:48:42.291Z,161.30
2018-02-08T06:51:09.910Z,158.80
2018-02-08T06:53:37.535Z,159.07
2018-02-08T06:56:05.127Z,150.87
2018-02-08T06:58:32.989Z,161.07
2018-02-08T07:01:00.579Z,148.10
2018-02-08T07:03:28.214Z,173.62
2018-02-08T07:05:55.810Z,156.87
2018-02-08T07:08:23.500Z,156.60
2018-02-08T07:10:51.154Z,180.05
2018-02-08T07:13:18.750Z,172.87
2018-02-08T07:15:47.047Z,178.45
2018-02-08T07:18:14.635Z,168.05
2018-02-08T07:20:42.236Z,160.05
2018-02-08T07:23:09.827Z,151.45
2018-02-08T07:25:37.590Z,153.65
2018-02-08T07:28:05.241Z,161.12
2018-02-08T07:30:32.871Z,158.40
2018-02-08T07:33:00.474Z,153.02
2018-02-08T07:35:28.208Z,179.70
2018-02-08T07:37:55.832Z,159.55
2018-02-08T07:40:23.419Z,141.65
2018-02-08T07:42:51.018Z,148.55
2018-02-08T07:45:18.603Z,146.77
2018-02-08T07:47:46.188Z,152.25
2018-02-08T07:50:13.795Z,148.30
2018-02-08T07:52:41.472Z,143.00
2018-02-08T07:55:09.136Z,148.95
2018-02-08T07:57:36.722Z,142.48
2018-02-08T08:00:04.315Z,161.77
2018-02-08T08:02:31.975Z,150.87
2018-02-08T08:04:59.571Z,152.40
2018-02-08T08:07:27.163Z,148.65
2018-02-08T08:09:54.759Z,152.07
2018-02-08T08:12:22.351Z,152.50
2018-02-08T08:14:49.988Z,141.00
2018-02-08T08:17:17.590Z,156.87
2018-02-08T08:19:45.212Z,154.77
2018-02-08T08:22:12.844Z,151.37
2018-02-08T08:24:40.436Z,135.02
2018-02-08T08:27:08.095Z,125.12
2018-02-08T08:29:35.688Z,153.55
2018-02-08T08:32:03.283Z,156.15
2018-02-08T08:34:30.985Z,145.50
2018-02-08T08:36:58.572Z,125.68
2018-02-08T08:39:26.167Z,132.95
2018-02-08T08:41:53.760Z,133.00
2018-02-08T08:44:21.358Z,107.80
2018-02-08T08:46:48.954Z,130.35
2018-02-08T08:49:16.546Z,131.45
2018-02-08T08:51:44.212Z,132.98
2018-02-08T08:54:11.802Z,119.87
2018-02-08T08:56:39.394Z,139.93
2018-02-08T08:59:07.144Z,115.55
2018-02-08T09:01:34.774Z,138.48
2018-02-08T09:04:02.406Z,113.62
2018-02-08T09:06:30.007Z,122.53
2018-02-08T09:08:57.637Z,121.03
2018-02-08T09:11:25.869Z,134.27
2018-02-08T09:13:53.455Z,122.55
2018-02-08T09:16:21.047Z,135.18
2018-02-08T09:18:48.711Z,123.57
2018-02-08T09:21:16.420Z,121.45
2018-02-08T09:23:44.015Z,116.88
2018-02-08T09:26:11.696Z,115.95
2018-02-08T09:28:39.292Z,129.95
2018-02-08T09:31:06.956Z,120.60
2018-02-08T09:33:34.616Z,117.78
2018-02-08T09:36:02.923Z,128.18
2018-02-08T09:38:30.555Z,118.10
2018-02-08T09:40:58.183Z,119.45
2018-02-08T09:43:25.854Z,116.45
2018-02-08T09:45:53.479Z,110.25
2018-02-08T09:48:21.103Z,88.25
2018-02-08T09:50:48.740Z,87.82
2018-02-08T09:53:16.349Z,112.10
2018-02-08T09:55:44.097Z,125.87
2018-02-08T09:58:11.682Z,128.35
2018-02-08T10:00:39.276Z,93.70
2018-02-08T10:03:06.908Z,94.85
2018-02-08T10:05:34.607Z,87.22
2018-02-08T10:08:02.301Z,83.47
2018-02-08T10:10:29.931Z,91.35
2018-02-08T10:12:57.523Z,83.25
2018-02-08T10:15:25.151Z,87.60
2018-02-08T10:17:52.822Z,82.05
2018-02-08T10:20:20.451Z,86.68
2018-02-08T10:22:48.075Z,81.17
2018-02-08T10:25:15.738Z,84.37
2018-02-08T10:27:43.336Z,97.95
2018-02-08T10:30:11.038Z,84.03
2018-02-08T10:32:38.623Z,83.53
2018-02-08T10:35:06.259Z,81.93
2018-02-08T10:37:33.835Z,84.10
2018-02-08T10:40:01.427Z,75.28
2018-02-08T10:42:29.014Z,76.75
2018-02-08T10:44:56.635Z,98.25
2018-02-08T10:47:24.218Z,79.53
2018-02-08T10:49:51.806Z,86.55
2018-02-08T10:52:19.538Z,72.65
2018-02-08T10:54:47.108Z,74.57
2018-02-08T10:57:14.707Z,67.50
2018-02-08T10:59:42.320Z,58.20
2018-02-08T11:02:09.929Z,56.97
2018-02-08T11:04:37.513Z,53.87
2018-02-08T11:07:05.091Z,49.93
2018-02-08T11:09:32.718Z,54.17
2018-02-08T11:12:00.302Z,51.20
2018-02-08T11:14:27.888Z,49.33
2018-02-08T11:16:55.467Z,56.83
2018-02-08T11:19:23.054Z,49.38
2018-02-08T11:21:50.723Z,50.00
2018-02-08T11:24:18.303Z,50.37
2018-02-08T11:26:45.946Z,44.07
2018-02-08T11:29:13.573Z,58.97
2018-02-08T11:31:41.159Z,51.93
2018-02-08T11:34:08.784Z,52.00
2018-02-08T11:36:36.390Z,45.88
2018-02-08T11:39:03.984Z,41.20
2018-02-08T11:41:31.624Z,35.07
2018-02-08T11:43:59.214Z,52.38
2018-02-08T11:46:26.839Z,40.87
2018-02-08T11:48:54.418Z,58.47
2018-02-08T11:51:22.048Z,54.08
2018-02-08T11:53:49.728Z,47.43
2018-02-08T11:56:17.400Z,55.63
2018-02-08T11:58:44.983Z,49.93
2018-02-08T12:01:12.619Z,40.43
2018-02-08T12:03:40.193Z,39.00
2018-02-08T12:06:07.771Z,46.63
2018-02-08T12:08:35.387Z,49.67
2018-02-08T12:11:02.976Z,47.10
2018-02-08T12:13:30.599Z,37.27
2018-02-08T12:15:58.187Z,47.43
2018-02-08T12:18:25.768Z,43.37
2018-02-08T12:20:53.346Z,36.77
2018-02-08T12:23:20.927Z,36.13
2018-02-08T12:25:48.511Z,43.77
2018-02-08T12:28:16.884Z,43.30
2018-02-08T12:30:44.463Z,40.70
2018-02-08T12:33:12.132Z,40.03
2018-02-08T12:35:39.791Z,49.47
2018-02-08T12:38:07.455Z,42.67
2018-02-08T12:40:35.075Z,47.37
2018-02-08T12:43:02.656Z,39.93
2018-02-08T12:45:30.236Z,32.60
2018-02-08T12:47:57.828Z,40.40
2018-02-08T12:50:25.496Z,40.73
2018-02-08T12:52:53.082Z,40.43
2018-02-08T12:55:20.659Z,41.13
2018-02-08T12:57:48.240Z,42.27
2018-02-08T13:00:15.859Z,32.13
2018-02-08T13:02:43.508Z,39.13
2018-02-08T13:05:11.130Z,34.73
2018-02-08T13:07:38.743Z,48.70
2018-02-08T13:10:06.371Z,44.87
2018-02-08T13:12:33.947Z,41.40
2018-02-08T13:15:01.528Z,42.73
2018-02-08T13:17:29.138Z,40.20
2018-02-08T13:19:56.749Z,41.10
2018-02-08T13:22:24.335Z,36.43
2018-02-08T13:24:51.915Z,44.07
2018-02-08T13:27:19.578Z,35.30
2018-02-08T13:29:47.150Z,38.20
2018-02-08T13:32:17.287Z,36.30
2018-02-08T13:34:44.878Z,33.10
2018-02-08T13:37:12.486Z,40.00
2018-02-08T13:39:41.037Z,40.13
2018-02-08T13:42:10.531Z,36.87
2018-02-08T13:44:38.123Z,38.47
2018-02-08T13:50:15.162Z,39.40
2018-02-08T13:55:48.398Z,36.50
2018-02-08T13:58:21.587Z,35.30
2018-02-08T14:00:49.492Z,33.97
2018-02-08T14:03:17.148Z,38.07
2018-02-08T14:05:44.731Z,31.50
2018-02-08T14:08:12.379Z,38.27
2018-02-08T14:10:39.994Z,41.93
2018-02-08T14:13:07.677Z,31.83
2018-02-08T14:15:35.288Z,42.73
2018-02-08T14:18:02.875Z,37.00
2018-02-08T14:20:30.487Z,41.40
2018-02-08T14:22:58.066Z,38.87
2018-02-08T14:25:25.682Z,35.27
2018-02-08T14:27:53.299Z,34.67
2018-02-08T14:30:20.966Z,34.70
2018-02-08T14:32:48.627Z,43.27
2018-02-08T14:35:16.288Z,44.03
2018-02-08T14:37:43.912Z,36.77
2018-02-08T14:40:11.548Z,46.17
2018-02-08T14:42:39.211Z,50.17
2018-02-08T14:45:06.825Z,45.47
2018-02-08T14:47:34.557Z,45.30
2018-02-08T14:50:02.135Z,39.10
2018-02-08T14:52:29.755Z,40.93
2018-02-08T14:54:57.332Z,41.03
2018-02-08T14:57:24.951Z,48.23
2018-02-08T14:59:52.586Z,48.50
2018-02-08T15:02:20.280Z,41.77
2018-02-08T15:04:47.939Z,34.77
2018-02-08T15:07:15.554Z,45.70
2018-02-08T15:09:43.167Z,42.43
2018-02-08T15:12:10.827Z,37.10
2018-02-08T15:14:38.459Z,40.40
2018-02-08T15:17:06.078Z,43.47
2018-02-08T15:19:33.712Z,44.47
2018-02-08T15:22:01.292Z,53.10
2018-02-08T15:24:29.150Z,39.25
2018-02-08T15:26:56.855Z,46.92
2018-02-08T15:29:24.435Z,46.83
2018-02-08T15:31:52.011Z,40.47
2018-02-08T15:34:19.594Z,38.90
2018-02-08T15:36:47.282Z,46.03
2018-02-08T15:39:14.910Z,41.80
2018-02-08T15:41:42.489Z,39.13
2018-02-08T15:44:10.130Z,38.80
2018-02-08T15:46:37.728Z,40.88
2018-02-08T15:49:05.359Z,45.50
2018-02-08T15:51:33.023Z,45.78
2018-02-08T15:54:00.635Z,35.13
2018-02-08T15:56:28.283Z,40.12
2018-02-08T15:58:55.872Z,41.03
2018-02-08T16:01:23.579Z,38.20
2018-02-08T16:03:51.182Z,56.58
2018-02-08T16:06:18.771Z,40.55
2018-02-08T16:08:46.364Z,34.33
2018-02-08T16:11:13.983Z,37.50
2018-02-08T16:13:41.571Z,39.92
2018-02-08T16:16:09.162Z,39.30
2018-02-08T16:18:36.751Z,64.07
2018-02-08T16:21:04.339Z,54.28
2018-02-08T16:23:31.931Z,43.13
2018-02-08T16:25:59.550Z,41.20
2018-02-08T16:28:27.136Z,49.67
2018-02-08T16:30:54.736Z,41.42
2018-02-08T16:33:22.366Z,62.20
2018-02-08T16:35:49.958Z,48.87
2018-02-08T16:38:17.645Z,49.40
2018-02-08T16:40:45.274Z,53.25
2018-02-08T16:43:12.919Z,46.00
2018-02-08T16:45:40.552Z,53.33
2018-02-08T16:48:08.140Z,53.28
2018-02-08T16:50:35.726Z,50.35
2018-02-08T16:53:03.320Z,55.60
2018-02-08T16:55:31.034Z,51.63
2018-02-08T16:57:58.628Z,47.08
2018-02-08T17:00:26.214Z,55.83
2018-02-08T17:02:53.803Z,58.95
2018-02-08T17:05:21.528Z,54.70
2018-02-08T17:07:49.179Z,48.45
2018-02-08T17:10:16.771Z,59.55
2018-02-08T17:12:44.366Z,60.42
2018-02-08T17:15:11.960Z,53.03
2018-02-08T17:17:39.595Z,62.90
2018-02-08T17:20:07.182Z,62.92
2018-02-08T17:22:34.773Z,67.15
2018-02-08T17:25:02.364Z,52.38
2018-02-08T17:27:29.956Z,59.28
2018-02-08T17:29:57.637Z,46.72
2018-02-08T17:32:25.222Z,52.95
2018-02-08T17:34:52.843Z,56.70
2018-02-08T17:37:20.429Z,59.95
2018-02-08T17:39:48.018Z,55.12
2018-02-08T17:42:15.599Z,53.28
2018-02-08T17:44:43.232Z,62.28
2018-02-08T17:47:10.832Z,66.95
2018-02-08T17:49:38.426Z,57.33
2018-02-08T17:52:06.008Z,64.55
2018-02-08T17:54:33.595Z,58.83
2018-02-08T17:57:01.183Z,68.07
2018-02-08T17:59:28.777Z,57.60
2018-02-08T18:01:56.382Z,64.85
2018-02-08T18:04:23.971Z,72.37
2018-02-08T18:06:51.564Z,68.57
2018-02-08T18:09:19.151Z,57.65
2018-02-08T18:11:46.734Z,64.32
2018-02-08T18:14:14.378Z,64.35
2018-02-08T18:16:42.990Z,74.10
2018-02-08T18:19:10.623Z,78.93
2018-02-08T18:21:38.210Z,69.93
2018-02-08T18:24:05.803Z,62.97
2018-02-08T18:26:33.399Z,77.00
2018-02-08T18:29:01.039Z,68.18
2018-02-08T18:31:28.672Z,60.45
2018-02-08T18:33:56.330Z,70.93
2018-02-08T18:36:23.922Z,67.95
2018-02-08T18:38:51.511Z,78.80
2018-02-08T18:41:19.108Z,71.72
2018-02-08T18:43:46.714Z,74.45
2018-02-08T18:46:14.303Z,76.50
2018-02-08T18:48:42.795Z,69.43
2018-02-08T18:51:10.390Z,82.65
2018-02-08T18:53:38.020Z,80.05
2018-02-08T18:56:05.651Z,89.47
2018-02-08T18:58:33.288Z,71.72
2018-02-08T19:01:00.879Z,67.78
2018-02-08T19:03:28.512Z,66.70
2018-02-08T19:05:56.106Z,64.68
2018-02-08T19:08:23.807Z,63.60
2018-02-08T19:10:51.390Z,62.97
2018-02-08T19:13:18.984Z,68.97
2018-02-08T19:15:46.678Z,70.00
2018-02-08T19:18:14.267Z,64.03
2018-02-08T19:20:41.858Z,71.25
2018-02-08T19:23:09.531Z,61.67
2018-02-08T19:25:37.119Z,80.87
2018-02-08T19:28:04.707Z,75.80
2018-02-08T19:30:32.419Z,87.80
2018-02-08T19:33:00.011Z,79.47
2018-02-08T19:35:27.599Z,81.78
2018-02-08T19:37:57.709Z,74.45
2018-02-08T19:40:25.439Z,89.80
2018-02-08T19:42:53.086Z,93.45
2018-02-08T19:45:20.728Z,80.12
2018-02-08T19:47:49.078Z,75.82
2018-02-08T19:50:19.361Z,72.00
2018-02-08T19:52:47.472Z,69.53
2018-02-08T19:55:16.117Z,64.82
2018-02-08T19:57:44.677Z,68.47
2018-02-08T20:00:13.128Z,62.22
2018-02-08T20:02:42.182Z,67.75
2018-02-08T20:05:10.753Z,68.00
2018-02-08T20:07:38.531Z,60.72
2018-02-08T20:10:06.340Z,64.87
2018-02-08T20:12:34.059Z,65.07
2018-02-08T20:15:01.770Z,64.10
2018-02-08T20:17:29.604Z,69.95
2018-02-08T20:19:57.430Z,67.80
2018-02-08T20:22:25.064Z,58.13
2018-02-08T20:24:52.787Z,74.10
2018-02-08T20:27:20.411Z,66.22
2018-02-08T20:29:48.133Z,72.22
2018-02-08T20:32:16.229Z,78.22
2018-02-08T20:34:43.982Z,67.20
2018-02-08T20:37:11.567Z,72.00
2018-02-08T20:39:39.175Z,62.28
2018-02-08T20:42:06.762Z,65.85
2018-02-08T20:44:34.413Z,65.47
2018-02-08T20:47:02.027Z,67.00
2018-02-08T20:49:29.872Z,72.93
2018-02-08T20:51:57.641Z,71.20
2018-02-08T20:54:25.588Z,89.65
2018-02-08T20:56:53.221Z,79.80
2018-02-08T20:59:20.850Z,74.97
2018-02-08T21:01:48.514Z,75.90
2018-02-08T21:04:16.183Z,77.97
2018-02-08T21:06:43.773Z,81.43
2018-02-08T21:09:11.435Z,83.82
2018-02-08T21:11:39.137Z,93.53
2018-02-08T21:14:06.922Z,119.80
2018-02-08T21:16:34.598Z,123.90
2018-02-08T21:19:02.191Z,112.80
2018-02-08T21:21:29.818Z,98.68
2018-02-08T21:23:57.487Z,105.15
2018-02-08T21:26:25.274Z,86.18
2018-02-08T21:28:52.915Z,88.03
2018-02-08T21:31:20.502Z,83.35
2018-02-08T21:33:48.105Z,72.25
2018-02-08T21:36:15.696Z,75.68
2018-02-08T21:38:43.392Z,78.78
2018-02-08T21:41:11.059Z,76.05
2018-02-08T21:43:38.682Z,71.00
2018-02-08T21:46:06.436Z,85.45
2018-02-08T21:48:34.074Z,86.40
2018-02-08T21:51:01.660Z,72.57
2018-02-08T21:53:29.368Z,86.12
2018-02-08T21:55:56.951Z,89.25
2018-02-08T21:58:24.558Z,91.90
2018-02-08T22:00:52.142Z,90.25
2018-02-08T22:03:19.815Z,83.50
2018-02-08T22:05:47.398Z,73.20
2018-02-08T22:08:15.018Z,88.28
2018-02-08T22:10:42.700Z,75.30
2018-02-08T22:13:10.295Z,83.97
2018-02-08T22:15:37.882Z,72.55
2018-02-08T22:18:05.487Z,82.85
2018-02-08T22:20:33.075Z,80.72
2018-02-08T22:23:00.714Z,65.68
2018-02-08T22:25:28.306Z,82.05
2018-02-08T22:27:55.895Z,89.25
2018-02-08T22:30:23.600Z,73.60
2018-02-08T22:32:51.743Z,85.03
2018-02-08T22:35:19.332Z,84.25
2018-02-08T22:37:46.914Z,82.37
2018-02-08T22:40:14.503Z,87.22
2018-02-08T22:42:42.123Z,72.07
2018-02-08T22:45:09.774Z,84.37
2018-02-08T22:47:37.388Z,88.35
2018-02-08T22:50:05.052Z,72.18
2018-02-08T22:52:32.639Z,82.57
2018-02-08T22:55:00.224Z,85.68
2018-02-08T22:57:27.891Z,79.90
2018-02-08T22:59:55.482Z,87.43
2018-02-08T23:02:23.067Z,81.32
2018-02-08T23:04:50.668Z,85.65
2018-02-08T23:07:18.335Z,95.38
2018-02-08T23:09:45.919Z,96.20
2018-02-08T23:12:13.508Z,95.82
2018-02-08T23:14:41.103Z,104.80
2018-02-08T23:17:08.692Z,73.93
2018-02-08T23:19:36.381Z,95.87
2018-02-08T23:22:04.007Z,77.53
2018-02-08T23:24:31.592Z,79.32
2018-02-08T23:26:59.178Z,69.93
2018-02-08T23:29:26.761Z,85.22
2018-02-08T23:31:54.355Z,80.18
2018-02-08T23:34:21.975Z,82.57
2018-02-08T23:36:49.560Z,82.22
2018-02-08T23:39:17.236Z,81.75
2018-02-08T23:41:44.950Z,74.30
2018-02-08T23:44:12.536Z,84.87
2018-02-08T23:46:40.120Z,73.57
2018-02-08T23:49:07.706Z,75.78
2018-02-08T23:51:35.292Z,95.72
2018-02-08T23:54:02.879Z,84.03
2018-02-08T23:56:30.500Z,80.38
2018-02-08T23:58:58.091Z,85.30
